sensor_id;sensor_type;location;lat;lon;timestamp;pressure;altitude;pressure_sealevel;temperature;humidity
7335;BME280;3708;42.632;23.378;2023-03-12T00:00:33;93418.09;;;4.37;48.42
7335;BME280;3708;42.632;23.378;2023-03-12T00:03:00;93429.97;;;3.76;49.26
7335;BME280;3708;42.632;23.378;2023-03-12T00:05:27;93441.06;;;3.99;48.95
7335;BME280;3708;42.632;23.378;2023-03-12T00:07:54;93474.75;;;3.55;49.82
7335;BME280;3708;42.632;23.378;2023-03-12T00:10:24;93422.25;;;3.85;50.33
7335;BME280;3708;42.632;23.378;2023-03-12T00:12:52;93432.63;;;4.16;49.23
7335;BME280;3708;42.632;23.378;2023-03-12T00:15:19;93428.84;;;4.22;49.08
7335;BME280;3708;42.632;23.378;2023-03-12T00:17:48;93442.56;;;3.92;49.80
7335;BME280;3708;42.632;23.378;2023-03-12T00:20:15;93448.81;;;3.68;50.55
7335;BME280;3708;42.632;23.378;2023-03-12T00:22:42;93435.03;;;3.59;50.48
7335;BME280;3708;42.632;23.378;2023-03-12T00:25:11;93444.63;;;3.59;50.84
7335;BME280;3708;42.632;23.378;2023-03-12T00:27:38;93440.09;;;3.64;49.41
7335;BME280;3708;42.632;23.378;2023-03-12T00:30:19;93432.44;;;3.81;49.72
7335;BME280;3708;42.632;23.378;2023-03-12T00:32:46;93469.88;;;3.53;50.42
7335;BME280;3708;42.632;23.378;2023-03-12T00:35:13;93432.44;;;3.37;50.15
7335;BME280;3708;42.632;23.378;2023-03-12T00:37:40;93450.47;;;3.64;49.61
7335;BME280;3708;42.632;23.378;2023-03-12T00:40:07;93427.09;;;3.34;49.81
7335;BME280;3708;42.632;23.378;2023-03-12T00:42:35;93436.22;;;3.53;49.31
7335;BME280;3708;42.632;23.378;2023-03-12T00:45:02;93438.44;;;3.68;49.21
7335;BME280;3708;42.632;23.378;2023-03-12T00:47:31;93429.91;;;3.46;49.37
7335;BME280;3708;42.632;23.378;2023-03-12T00:49:57;93445.16;;;3.69;48.96
7335;BME280;3708;42.632;23.378;2023-03-12T00:52:24;93433.63;;;3.53;49.33
7335;BME280;3708;42.632;23.378;2023-03-12T00:54:51;93446.94;;;3.25;49.84
7335;BME280;3708;42.632;23.378;2023-03-12T00:57:22;93458.22;;;3.64;48.80
7335;BME280;3708;42.632;23.378;2023-03-12T00:59:49;93445.03;;;3.74;48.88
7335;BME280;3708;42.632;23.378;2023-03-12T01:02:16;93450.03;;;3.49;48.80
7335;BME280;3708;42.632;23.378;2023-03-12T01:04:44;93467.28;;;3.53;49.42
7335;BME280;3708;42.632;23.378;2023-03-12T01:07:11;93458.16;;;3.20;49.92
7335;BME280;3708;42.632;23.378;2023-03-12T01:09:38;93455.41;;;3.17;50.86
7335;BME280;3708;42.632;23.378;2023-03-12T01:12:05;93450.50;;;3.15;51.21
7335;BME280;3708;42.632;23.378;2023-03-12T01:14:32;93459.13;;;3.24;50.86
7335;BME280;3708;42.632;23.378;2023-03-12T01:16:58;93454.25;;;3.09;51.62
7335;BME280;3708;42.632;23.378;2023-03-12T01:19:25;93458.38;;;3.10;51.52
7335;BME280;3708;42.632;23.378;2023-03-12T01:21:53;93483.09;;;3.16;51.73
7335;BME280;3708;42.632;23.378;2023-03-12T01:24:20;93480.25;;;3.04;52.43
7335;BME280;3708;42.632;23.378;2023-03-12T01:26:47;93470.16;;;3.52;52.04
7335;BME280;3708;42.632;23.378;2023-03-12T01:29:14;93454.81;;;3.55;52.09
7335;BME280;3708;42.632;23.378;2023-03-12T01:31:41;93465.31;;;3.01;53.33
7335;BME280;3708;42.632;23.378;2023-03-12T01:34:08;93450.41;;;3.20;52.83
7335;BME280;3708;42.632;23.378;2023-03-12T01:36:36;93450.34;;;2.98;54.03
7335;BME280;3708;42.632;23.378;2023-03-12T01:39:04;93435.53;;;2.90;53.91
7335;BME280;3708;42.632;23.378;2023-03-12T01:41:32;93461.44;;;3.12;53.09
7335;BME280;3708;42.632;23.378;2023-03-12T01:43:59;93459.41;;;3.23;52.80
7335;BME280;3708;42.632;23.378;2023-03-12T01:46:30;93458.78;;;3.03;53.21
7335;BME280;3708;42.632;23.378;2023-03-12T01:49:01;93464.81;;;3.48;52.88
7335;BME280;3708;42.632;23.378;2023-03-12T01:51:32;93510.50;;;3.17;52.25
7335;BME280;3708;42.632;23.378;2023-03-12T01:54:01;93471.41;;;3.05;52.88
7335;BME280;3708;42.632;23.378;2023-03-12T01:56:34;93465.56;;;3.49;51.48
7335;BME280;3708;42.632;23.378;2023-03-12T01:59:05;93463.13;;;3.30;51.79
7335;BME280;3708;42.632;23.378;2023-03-12T02:01:33;93480.75;;;3.28;52.06
7335;BME280;3708;42.632;23.378;2023-03-12T02:04:00;93464.84;;;3.35;51.87
7335;BME280;3708;42.632;23.378;2023-03-12T02:06:33;93475.47;;;2.84;52.55
7335;BME280;3708;42.632;23.378;2023-03-12T02:09:05;93486.72;;;3.29;50.73
7335;BME280;3708;42.632;23.378;2023-03-12T02:11:34;93489.16;;;3.47;50.01
7335;BME280;3708;42.632;23.378;2023-03-12T02:14:01;93492.56;;;3.56;49.44
7335;BME280;3708;42.632;23.378;2023-03-12T02:16:28;93492.31;;;3.58;49.70
7335;BME280;3708;42.632;23.378;2023-03-12T02:18:56;93488.19;;;3.07;50.63
7335;BME280;3708;42.632;23.378;2023-03-12T02:21:28;93499.19;;;3.27;50.63
7335;BME280;3708;42.632;23.378;2023-03-12T02:24:02;93482.94;;;2.99;49.95
7335;BME280;3708;42.632;23.378;2023-03-12T02:26:34;93478.94;;;3.64;49.04
7335;BME280;3708;42.632;23.378;2023-03-12T02:29:03;93477.91;;;3.16;50.21
7335;BME280;3708;42.632;23.378;2023-03-12T02:31:34;93483.06;;;3.30;49.85
7335;BME280;3708;42.632;23.378;2023-03-12T02:34:03;93462.78;;;3.09;50.24
7335;BME280;3708;42.632;23.378;2023-03-12T02:36:30;93468.19;;;2.72;50.79
7335;BME280;3708;42.632;23.378;2023-03-12T02:38:56;93486.78;;;3.01;50.49
7335;BME280;3708;42.632;23.378;2023-03-12T02:41:25;93488.84;;;3.13;49.68
7335;BME280;3708;42.632;23.378;2023-03-12T02:43:58;93494.31;;;2.98;49.34
7335;BME280;3708;42.632;23.378;2023-03-12T02:46:26;93491.84;;;2.93;50.12
7335;BME280;3708;42.632;23.378;2023-03-12T02:48:55;93461.16;;;3.00;50.37
7335;BME280;3708;42.632;23.378;2023-03-12T02:51:21;93458.22;;;2.93;50.12
7335;BME280;3708;42.632;23.378;2023-03-12T02:53:48;93462.81;;;2.96;50.55
7335;BME280;3708;42.632;23.378;2023-03-12T02:56:19;93456.84;;;3.09;50.56
7335;BME280;3708;42.632;23.378;2023-03-12T02:58:46;93445.88;;;2.76;50.91
7335;BME280;3708;42.632;23.378;2023-03-12T03:01:15;93465.09;;;3.11;49.91
7335;BME280;3708;42.632;23.378;2023-03-12T03:03:42;93471.16;;;2.79;51.44
7335;BME280;3708;42.632;23.378;2023-03-12T03:06:09;93442.53;;;2.49;51.37
7335;BME280;3708;42.632;23.378;2023-03-12T03:08:36;93456.50;;;2.88;50.76
7335;BME280;3708;42.632;23.378;2023-03-12T03:11:03;93460.16;;;2.74;51.25
7335;BME280;3708;42.632;23.378;2023-03-12T03:13:30;93477.28;;;2.70;51.31
7335;BME280;3708;42.632;23.378;2023-03-12T03:15:57;93487.16;;;2.81;49.23
7335;BME280;3708;42.632;23.378;2023-03-12T03:18:25;93465.31;;;3.01;48.44
7335;BME280;3708;42.632;23.378;2023-03-12T03:20:55;93442.16;;;2.55;49.52
7335;BME280;3708;42.632;23.378;2023-03-12T03:23:22;93461.84;;;2.92;47.73
7335;BME280;3708;42.632;23.378;2023-03-12T03:25:48;93503.72;;;2.67;47.60
7335;BME280;3708;42.632;23.378;2023-03-12T03:28:17;93454.41;;;2.77;47.70
7335;BME280;3708;42.632;23.378;2023-03-12T03:30:44;93457.47;;;2.65;46.43
7335;BME280;3708;42.632;23.378;2023-03-12T03:33:11;93471.25;;;2.88;46.84
7335;BME280;3708;42.632;23.378;2023-03-12T03:35:39;93471.16;;;2.66;47.34
7335;BME280;3708;42.632;23.378;2023-03-12T03:38:06;93483.97;;;2.98;46.38
7335;BME280;3708;42.632;23.378;2023-03-12T03:40:33;93474.47;;;3.21;45.33
7335;BME280;3708;42.632;23.378;2023-03-12T03:43:00;93494.69;;;3.05;46.20
7335;BME280;3708;42.632;23.378;2023-03-12T03:45:26;93507.63;;;2.91;47.41
7335;BME280;3708;42.632;23.378;2023-03-12T03:47:53;93498.06;;;2.92;47.20
7335;BME280;3708;42.632;23.378;2023-03-12T03:50:20;93488.28;;;3.02;46.21
7335;BME280;3708;42.632;23.378;2023-03-12T03:52:48;93512.38;;;2.76;45.67
7335;BME280;3708;42.632;23.378;2023-03-12T03:55:15;93506.47;;;3.25;45.28
7335;BME280;3708;42.632;23.378;2023-03-12T03:57:42;93514.53;;;2.96;46.47
7335;BME280;3708;42.632;23.378;2023-03-12T04:00:10;93521.72;;;2.85;46.37
7335;BME280;3708;42.632;23.378;2023-03-12T04:02:37;93529.53;;;3.35;44.98
7335;BME280;3708;42.632;23.378;2023-03-12T04:05:07;93534.09;;;2.75;45.75
7335;BME280;3708;42.632;23.378;2023-03-12T04:07:34;93531.59;;;2.97;45.19
7335;BME280;3708;42.632;23.378;2023-03-12T04:10:03;93546.72;;;2.76;45.88
7335;BME280;3708;42.632;23.378;2023-03-12T04:12:30;93545.00;;;2.99;45.45
7335;BME280;3708;42.632;23.378;2023-03-12T04:15:00;93545.88;;;2.67;45.93
7335;BME280;3708;42.632;23.378;2023-03-12T04:17:26;93564.50;;;2.51;46.05
7335;BME280;3708;42.632;23.378;2023-03-12T04:19:53;93557.19;;;2.71;45.93
7335;BME280;3708;42.632;23.378;2023-03-12T04:22:20;93571.38;;;3.01;44.94
7335;BME280;3708;42.632;23.378;2023-03-12T04:24:47;93579.13;;;2.74;45.04
7335;BME280;3708;42.632;23.378;2023-03-12T04:27:15;93557.28;;;2.80;43.39
7335;BME280;3708;42.632;23.378;2023-03-12T04:29:42;93583.47;;;2.60;44.42
7335;BME280;3708;42.632;23.378;2023-03-12T04:32:09;93597.59;;;2.81;44.64
7335;BME280;3708;42.632;23.378;2023-03-12T04:34:36;93599.00;;;2.60;44.78
7335;BME280;3708;42.632;23.378;2023-03-12T04:37:03;93591.53;;;2.58;45.40
7335;BME280;3708;42.632;23.378;2023-03-12T04:39:30;93601.41;;;2.70;44.82
7335;BME280;3708;42.632;23.378;2023-03-12T04:41:57;93595.97;;;2.98;44.07
7335;BME280;3708;42.632;23.378;2023-03-12T04:44:25;93601.91;;;3.26;43.79
7335;BME280;3708;42.632;23.378;2023-03-12T04:46:51;93609.00;;;3.07;43.34
7335;BME280;3708;42.632;23.378;2023-03-12T04:49:18;93609.81;;;2.62;44.24
7335;BME280;3708;42.632;23.378;2023-03-12T04:51:45;93622.69;;;2.94;44.24
7335;BME280;3708;42.632;23.378;2023-03-12T04:54:12;93630.44;;;2.80;44.54
7335;BME280;3708;42.632;23.378;2023-03-12T04:56:39;93628.09;;;2.97;44.63
7335;BME280;3708;42.632;23.378;2023-03-12T04:59:06;93631.25;;;2.94;44.09
7335;BME280;3708;42.632;23.378;2023-03-12T05:01:35;93627.25;;;2.56;44.37
7335;BME280;3708;42.632;23.378;2023-03-12T05:04:03;93640.03;;;2.80;42.61
7335;BME280;3708;42.632;23.378;2023-03-12T05:06:30;93660.72;;;2.93;41.38
7335;BME280;3708;42.632;23.378;2023-03-12T05:08:56;93634.69;;;2.90;41.95
7335;BME280;3708;42.632;23.378;2023-03-12T05:11:42;93639.28;;;2.93;41.77
7335;BME280;3708;42.632;23.378;2023-03-12T05:14:10;93629.91;;;2.97;41.66
7335;BME280;3708;42.632;23.378;2023-03-12T05:16:38;93635.66;;;3.35;40.67
7335;BME280;3708;42.632;23.378;2023-03-12T05:19:05;93656.81;;;2.96;40.64
7335;BME280;3708;42.632;23.378;2023-03-12T05:21:32;93649.84;;;3.10;40.36
7335;BME280;3708;42.632;23.378;2023-03-12T05:23:59;93659.91;;;3.12;41.38
7335;BME280;3708;42.632;23.378;2023-03-12T05:26:28;93660.97;;;3.24;41.57
7335;BME280;3708;42.632;23.378;2023-03-12T05:28:58;93669.81;;;3.50;41.68
7335;BME280;3708;42.632;23.378;2023-03-12T05:31:26;93665.00;;;3.17;40.99
7335;BME280;3708;42.632;23.378;2023-03-12T05:33:58;93666.13;;;2.97;40.94
7335;BME280;3708;42.632;23.378;2023-03-12T05:36:25;93673.63;;;3.39;40.73
7335;BME280;3708;42.632;23.378;2023-03-12T05:38:52;93668.03;;;3.05;41.76
7335;BME280;3708;42.632;23.378;2023-03-12T05:41:21;93678.91;;;3.61;41.02
7335;BME280;3708;42.632;23.378;2023-03-12T05:43:48;93679.66;;;3.07;41.73
7335;BME280;3708;42.632;23.378;2023-03-12T05:46:15;93673.34;;;2.81;42.42
7335;BME280;3708;42.632;23.378;2023-03-12T05:48:41;93687.22;;;3.04;42.21
7335;BME280;3708;42.632;23.378;2023-03-12T05:51:10;93671.91;;;3.48;41.80
7335;BME280;3708;42.632;23.378;2023-03-12T05:53:37;93687.81;;;3.28;42.33
7335;BME280;3708;42.632;23.378;2023-03-12T05:56:05;93701.22;;;3.30;41.86
7335;BME280;3708;42.632;23.378;2023-03-12T05:58:33;93696.22;;;3.06;41.85
7335;BME280;3708;42.632;23.378;2023-03-12T06:01:01;93711.03;;;3.33;41.41
7335;BME280;3708;42.632;23.378;2023-03-12T06:03:28;93684.88;;;3.62;41.37
7335;BME280;3708;42.632;23.378;2023-03-12T06:05:54;93703.38;;;3.55;41.77
7335;BME280;3708;42.632;23.378;2023-03-12T06:08:23;93709.66;;;3.22;41.80
7335;BME280;3708;42.632;23.378;2023-03-12T06:10:50;93710.09;;;3.83;41.76
7335;BME280;3708;42.632;23.378;2023-03-12T06:13:19;93718.13;;;4.09;41.11
7335;BME280;3708;42.632;23.378;2023-03-12T06:15:46;93740.88;;;3.71;41.53
7335;BME280;3708;42.632;23.378;2023-03-12T06:18:13;93726.56;;;3.33;42.55
7335;BME280;3708;42.632;23.378;2023-03-12T06:20:40;93720.38;;;3.16;43.14
7335;BME280;3708;42.632;23.378;2023-03-12T06:23:07;93726.69;;;3.55;42.34
7335;BME280;3708;42.632;23.378;2023-03-12T06:25:35;93727.22;;;4.07;42.70
7335;BME280;3708;42.632;23.378;2023-03-12T06:28:02;93729.84;;;3.79;44.52
7335;BME280;3708;42.632;23.378;2023-03-12T06:30:29;93729.03;;;4.20;44.39
7335;BME280;3708;42.632;23.378;2023-03-12T06:32:56;93736.13;;;4.28;44.20
7335;BME280;3708;42.632;23.378;2023-03-12T06:35:23;93742.78;;;3.52;46.01
7335;BME280;3708;42.632;23.378;2023-03-12T06:37:50;93731.63;;;4.20;45.04
7335;BME280;3708;42.632;23.378;2023-03-12T06:40:17;93748.44;;;3.95;45.47
7335;BME280;3708;42.632;23.378;2023-03-12T06:42:45;93737.03;;;4.10;45.34
7335;BME280;3708;42.632;23.378;2023-03-12T06:45:12;93737.31;;;3.81;45.68
7335;BME280;3708;42.632;23.378;2023-03-12T06:47:38;93746.88;;;4.08;45.96
7335;BME280;3708;42.632;23.378;2023-03-12T06:50:06;93744.81;;;4.10;45.57
7335;BME280;3708;42.632;23.378;2023-03-12T06:52:32;93748.22;;;3.37;47.52
7335;BME280;3708;42.632;23.378;2023-03-12T06:54:59;93761.81;;;3.29;47.97
7335;BME280;3708;42.632;23.378;2023-03-12T06:57:26;93761.63;;;3.39;48.41
7335;BME280;3708;42.632;23.378;2023-03-12T06:59:54;93769.00;;;3.64;48.08
7335;BME280;3708;42.632;23.378;2023-03-12T07:02:21;93776.03;;;3.45;48.41
7335;BME280;3708;42.632;23.378;2023-03-12T07:04:48;93770.63;;;3.28;48.56
7335;BME280;3708;42.632;23.378;2023-03-12T07:07:17;93775.31;;;3.26;49.18
7335;BME280;3708;42.632;23.378;2023-03-12T07:09:46;93781.38;;;3.35;47.80
7335;BME280;3708;42.632;23.378;2023-03-12T07:12:22;93775.88;;;3.69;47.62
7335;BME280;3708;42.632;23.378;2023-03-12T07:14:58;93772.88;;;3.48;48.33
7335;BME280;3708;42.632;23.378;2023-03-12T07:17:26;93798.53;;;4.04;47.16
7335;BME280;3708;42.632;23.378;2023-03-12T07:19:57;93795.56;;;3.83;46.84
7335;BME280;3708;42.632;23.378;2023-03-12T07:22:26;93811.22;;;4.19;46.07
7335;BME280;3708;42.632;23.378;2023-03-12T07:24:56;93798.34;;;4.01;45.45
7335;BME280;3708;42.632;23.378;2023-03-12T07:27:28;93813.50;;;4.48;44.66
7335;BME280;3708;42.632;23.378;2023-03-12T07:30:02;93820.22;;;4.08;44.55
7335;BME280;3708;42.632;23.378;2023-03-12T07:32:31;93816.75;;;4.53;44.20
7335;BME280;3708;42.632;23.378;2023-03-12T07:35:09;93813.03;;;3.92;44.33
7335;BME280;3708;42.632;23.378;2023-03-12T07:37:36;93824.66;;;4.21;43.88
7335;BME280;3708;42.632;23.378;2023-03-12T07:40:08;93832.47;;;3.75;44.17
7335;BME280;3708;42.632;23.378;2023-03-12T07:42:36;93841.44;;;4.24;44.59
7335;BME280;3708;42.632;23.378;2023-03-12T07:45:09;93834.81;;;4.04;44.75
7335;BME280;3708;42.632;23.378;2023-03-12T07:47:39;93835.75;;;4.49;44.11
7335;BME280;3708;42.632;23.378;2023-03-12T07:50:08;93833.38;;;4.88;42.95
7335;BME280;3708;42.632;23.378;2023-03-12T07:52:41;93838.25;;;4.54;43.04
7335;BME280;3708;42.632;23.378;2023-03-12T07:55:10;93850.44;;;3.85;43.04
7335;BME280;3708;42.632;23.378;2023-03-12T07:57:40;93846.91;;;4.36;43.66
7335;BME280;3708;42.632;23.378;2023-03-12T08:00:29;93846.28;;;4.80;41.83
7335;BME280;3708;42.632;23.378;2023-03-12T08:03:01;93860.00;;;4.31;41.79
7335;BME280;3708;42.632;23.378;2023-03-12T08:05:28;93859.19;;;4.17;42.50
7335;BME280;3708;42.632;23.378;2023-03-12T08:07:56;93877.13;;;4.00;42.01
7335;BME280;3708;42.632;23.378;2023-03-12T08:10:25;93869.34;;;4.81;41.03
7335;BME280;3708;42.632;23.378;2023-03-12T08:12:52;93879.91;;;3.90;41.13
7335;BME280;3708;42.632;23.378;2023-03-12T08:15:20;93891.31;;;3.43;42.18
7335;BME280;3708;42.632;23.378;2023-03-12T08:17:47;93909.09;;;3.12;42.42
7335;BME280;3708;42.632;23.378;2023-03-12T08:20:14;93899.63;;;3.02;42.31
7335;BME280;3708;42.632;23.378;2023-03-12T08:22:41;93896.97;;;3.26;42.60
7335;BME280;3708;42.632;23.378;2023-03-12T08:25:09;93895.78;;;3.69;41.89
7335;BME280;3708;42.632;23.378;2023-03-12T08:27:36;93899.56;;;3.91;41.05
7335;BME280;3708;42.632;23.378;2023-03-12T08:30:03;93901.31;;;3.49;41.83
7335;BME280;3708;42.632;23.378;2023-03-12T08:32:32;93900.31;;;3.77;42.61
7335;BME280;3708;42.632;23.378;2023-03-12T08:35:00;93897.53;;;4.47;41.31
7335;BME280;3708;42.632;23.378;2023-03-12T08:37:29;93906.25;;;4.24;41.83
7335;BME280;3708;42.632;23.378;2023-03-12T08:39:57;93910.50;;;4.33;40.83
7335;BME280;3708;42.632;23.378;2023-03-12T08:42:24;93914.50;;;4.26;41.19
7335;BME280;3708;42.632;23.378;2023-03-12T08:44:51;93907.41;;;4.31;41.54
7335;BME280;3708;42.632;23.378;2023-03-12T08:47:18;93925.25;;;4.19;42.33
7335;BME280;3708;42.632;23.378;2023-03-12T08:49:47;93921.97;;;4.00;41.95
7335;BME280;3708;42.632;23.378;2023-03-12T08:52:14;93911.41;;;3.64;42.72
7335;BME280;3708;42.632;23.378;2023-03-12T08:54:41;93923.00;;;3.85;41.82
7335;BME280;3708;42.632;23.378;2023-03-12T08:57:08;93930.94;;;4.35;41.12
7335;BME280;3708;42.632;23.378;2023-03-12T08:59:35;93952.84;;;4.56;41.19
7335;BME280;3708;42.632;23.378;2023-03-12T09:02:02;93906.44;;;4.95;40.66
7335;BME280;3708;42.632;23.378;2023-03-12T09:04:29;93903.06;;;5.30;39.56
7335;BME280;3708;42.632;23.378;2023-03-12T09:06:59;93918.94;;;4.93;40.27
7335;BME280;3708;42.632;23.378;2023-03-12T09:09:26;93903.38;;;4.66;40.44
7335;BME280;3708;42.632;23.378;2023-03-12T09:11:53;93916.88;;;5.39;39.28
7335;BME280;3708;42.632;23.378;2023-03-12T09:14:20;93914.75;;;5.19;39.84
7335;BME280;3708;42.632;23.378;2023-03-12T09:16:47;93920.97;;;5.18;39.06
7335;BME280;3708;42.632;23.378;2023-03-12T09:19:15;93909.81;;;4.69;40.45
7335;BME280;3708;42.632;23.378;2023-03-12T09:21:42;93897.09;;;4.94;40.27
7335;BME280;3708;42.632;23.378;2023-03-12T09:24:10;93893.53;;;4.90;40.41
7335;BME280;3708;42.632;23.378;2023-03-12T09:26:37;93920.25;;;5.04;40.02
7335;BME280;3708;42.632;23.378;2023-03-12T09:29:04;93914.25;;;4.41;40.81
7335;BME280;3708;42.632;23.378;2023-03-12T09:31:31;93918.19;;;4.52;41.51
7335;BME280;3708;42.632;23.378;2023-03-12T09:33:58;93920.56;;;5.38;40.21
7335;BME280;3708;42.632;23.378;2023-03-12T09:36:25;93911.00;;;5.48;39.87
7335;BME280;3708;42.632;23.378;2023-03-12T09:38:53;93931.38;;;5.54;38.94
7335;BME280;3708;42.632;23.378;2023-03-12T09:41:24;93918.81;;;5.48;39.74
7335;BME280;3708;42.632;23.378;2023-03-12T09:43:53;93918.94;;;4.93;40.35
7335;BME280;3708;42.632;23.378;2023-03-12T09:46:26;93921.44;;;4.71;40.12
7335;BME280;3708;42.632;23.378;2023-03-12T09:48:56;93919.25;;;5.27;38.83
7335;BME280;3708;42.632;23.378;2023-03-12T09:51:28;93923.31;;;5.78;39.08
7335;BME280;3708;42.632;23.378;2023-03-12T09:53:59;93909.00;;;5.89;39.18
7335;BME280;3708;42.632;23.378;2023-03-12T09:56:30;93906.22;;;5.63;38.93
7335;BME280;3708;42.632;23.378;2023-03-12T09:59:00;93916.03;;;5.08;40.11
7335;BME280;3708;42.632;23.378;2023-03-12T10:01:34;93908.88;;;5.50;39.71
7335;BME280;3708;42.632;23.378;2023-03-12T10:04:19;93910.91;;;5.97;38.17
7335;BME280;3708;42.632;23.378;2023-03-12T10:06:52;93897.78;;;5.80;37.91
7335;BME280;3708;42.632;23.378;2023-03-12T10:09:31;93904.00;;;5.12;40.08
7335;BME280;3708;42.632;23.378;2023-03-12T10:12:08;93911.34;;;5.32;39.21
7335;BME280;3708;42.632;23.378;2023-03-12T10:14:50;93908.75;;;5.55;38.77
7335;BME280;3708;42.632;23.378;2023-03-12T10:17:43;93892.69;;;5.53;38.32
7335;BME280;3708;42.632;23.378;2023-03-12T10:20:39;93890.94;;;5.84;38.54
7335;BME280;3708;42.632;23.378;2023-03-12T10:23:11;93906.94;;;5.99;37.13
7335;BME280;3708;42.632;23.378;2023-03-12T10:25:41;93901.75;;;5.99;38.28
7335;BME280;3708;42.632;23.378;2023-03-12T10:28:17;93884.69;;;6.15;37.61
7335;BME280;3708;42.632;23.378;2023-03-12T10:30:49;93902.88;;;6.46;37.43
7335;BME280;3708;42.632;23.378;2023-03-12T10:33:18;93886.75;;;6.75;36.25
7335;BME280;3708;42.632;23.378;2023-03-12T10:35:45;93902.66;;;6.73;36.34
7335;BME280;3708;42.632;23.378;2023-03-12T10:38:16;93894.34;;;6.54;35.28
7335;BME280;3708;42.632;23.378;2023-03-12T10:40:43;93899.56;;;6.63;35.57
7335;BME280;3708;42.632;23.378;2023-03-12T10:43:10;93908.72;;;7.08;35.26
7335;BME280;3708;42.632;23.378;2023-03-12T10:45:43;93914.41;;;6.23;35.13
7335;BME280;3708;42.632;23.378;2023-03-12T10:48:18;93890.63;;;7.12;34.76
7335;BME280;3708;42.632;23.378;2023-03-12T10:51:00;93887.41;;;7.66;34.13
7335;BME280;3708;42.632;23.378;2023-03-12T10:53:29;93888.19;;;7.58;34.70
7335;BME280;3708;42.632;23.378;2023-03-12T10:55:58;93885.28;;;7.17;34.56
7335;BME280;3708;42.632;23.378;2023-03-12T10:58:31;93891.94;;;8.12;34.21
7335;BME280;3708;42.632;23.378;2023-03-12T11:01:02;93892.03;;;8.41;32.68
7335;BME280;3708;42.632;23.378;2023-03-12T11:03:29;93884.06;;;7.31;32.94
7335;BME280;3708;42.632;23.378;2023-03-12T11:05:59;93882.69;;;7.51;33.06
7335;BME280;3708;42.632;23.378;2023-03-12T11:08:28;93899.78;;;6.83;34.05
7335;BME280;3708;42.632;23.378;2023-03-12T11:10:56;93908.72;;;7.34;33.61
7335;BME280;3708;42.632;23.378;2023-03-12T11:13:27;93889.81;;;8.05;32.90
7335;BME280;3708;42.632;23.378;2023-03-12T11:15:55;93880.03;;;8.49;33.81
7335;BME280;3708;42.632;23.378;2023-03-12T11:18:29;93889.22;;;8.00;32.81
7335;BME280;3708;42.632;23.378;2023-03-12T11:21:13;93890.81;;;7.41;32.97
7335;BME280;3708;42.632;23.378;2023-03-12T11:23:41;93884.50;;;7.85;33.29
7335;BME280;3708;42.632;23.378;2023-03-12T11:26:13;93872.25;;;8.40;32.87
7335;BME280;3708;42.632;23.378;2023-03-12T11:28:43;93881.66;;;8.15;32.99
7335;BME280;3708;42.632;23.378;2023-03-12T11:31:19;93879.78;;;7.61;33.97
7335;BME280;3708;42.632;23.378;2023-03-12T11:33:50;93886.63;;;7.06;34.43
7335;BME280;3708;42.632;23.378;2023-03-12T11:36:25;93884.19;;;7.78;33.25
7335;BME280;3708;42.632;23.378;2023-03-12T11:38:59;93874.56;;;8.24;32.87
7335;BME280;3708;42.632;23.378;2023-03-12T11:41:40;93870.09;;;8.71;30.80
7335;BME280;3708;42.632;23.378;2023-03-12T11:44:18;93892.34;;;8.77;31.13
7335;BME280;3708;42.632;23.378;2023-03-12T11:47:00;93874.56;;;8.71;31.30
7335;BME280;3708;42.632;23.378;2023-03-12T11:49:46;93865.09;;;8.87;31.04
7335;BME280;3708;42.632;23.378;2023-03-12T11:52:23;93867.31;;;8.76;30.72
7335;BME280;3708;42.632;23.378;2023-03-12T11:55:05;93869.06;;;9.34;30.64
7335;BME280;3708;42.632;23.378;2023-03-12T11:57:38;93871.75;;;9.67;29.46
7335;BME280;3708;42.632;23.378;2023-03-12T12:00:14;93875.41;;;8.54;30.87
7335;BME280;3708;42.632;23.378;2023-03-12T12:02:55;93867.75;;;9.07;30.03
7335;BME280;3708;42.632;23.378;2023-03-12T12:05:32;93867.47;;;10.16;28.55
7335;BME280;3708;42.632;23.378;2023-03-12T12:08:15;93857.69;;;10.37;28.80
7335;BME280;3708;42.632;23.378;2023-03-12T12:10:52;93868.50;;;9.70;29.91
7335;BME280;3708;42.632;23.378;2023-03-12T12:13:27;93880.91;;;8.61;30.77
7335;BME280;3708;42.632;23.378;2023-03-12T12:16:07;93863.81;;;8.43;31.59
7335;BME280;3708;42.632;23.378;2023-03-12T12:18:52;93858.41;;;8.39;32.48
7335;BME280;3708;42.632;23.378;2023-03-12T12:21:37;93863.53;;;8.19;32.98
7335;BME280;3708;42.632;23.378;2023-03-12T12:24:16;93870.94;;;9.13;32.43
7335;BME280;3708;42.632;23.378;2023-03-12T12:26:53;93867.84;;;8.90;31.74
7335;BME280;3708;42.632;23.378;2023-03-12T12:29:34;93852.66;;;10.68;29.92
7335;BME280;3708;42.632;23.378;2023-03-12T12:32:06;93861.88;;;11.93;28.61
7335;BME280;3708;42.632;23.378;2023-03-12T12:34:50;93866.75;;;11.39;30.56
7335;BME280;3708;42.632;23.378;2023-03-12T12:37:26;93856.34;;;10.91;29.63
7335;BME280;3708;42.632;23.378;2023-03-12T12:40:02;93860.53;;;9.46;31.67
7335;BME280;3708;42.632;23.378;2023-03-12T12:42:35;93868.41;;;9.25;32.24
7335;BME280;3708;42.632;23.378;2023-03-12T12:45:11;93858.59;;;9.75;31.75
7335;BME280;3708;42.632;23.378;2023-03-12T12:47:44;93875.53;;;9.57;31.17
7335;BME280;3708;42.632;23.378;2023-03-12T12:50:16;93865.44;;;9.68;31.71
7335;BME280;3708;42.632;23.378;2023-03-12T12:52:49;93867.13;;;10.17;31.00
7335;BME280;3708;42.632;23.378;2023-03-12T12:55:21;93869.38;;;9.74;31.02
7335;BME280;3708;42.632;23.378;2023-03-12T12:57:54;93866.53;;;10.56;30.56
7335;BME280;3708;42.632;23.378;2023-03-12T13:00:36;93866.72;;;9.94;31.30
7335;BME280;3708;42.632;23.378;2023-03-12T13:03:05;93863.78;;;10.53;30.54
7335;BME280;3708;42.632;23.378;2023-03-12T13:05:57;93864.00;;;10.72;30.33
7335;BME280;3708;42.632;23.378;2023-03-12T13:08:34;93864.34;;;10.02;30.50
7335;BME280;3708;42.632;23.378;2023-03-12T13:11:04;93866.22;;;10.82;30.21
7335;BME280;3708;42.632;23.378;2023-03-12T13:13:31;93866.66;;;11.36;28.44
7335;BME280;3708;42.632;23.378;2023-03-12T13:16:32;93873.41;;;10.97;28.85
7335;BME280;3708;42.632;23.378;2023-03-12T13:19:02;93875.13;;;10.81;29.25
7335;BME280;3708;42.632;23.378;2023-03-12T13:21:37;93875.84;;;9.88;31.16
7335;BME280;3708;42.632;23.378;2023-03-12T13:24:15;93879.91;;;9.45;32.17
7335;BME280;3708;42.632;23.378;2023-03-12T13:26:51;93883.34;;;10.80;31.21
7335;BME280;3708;42.632;23.378;2023-03-12T13:29:22;93873.06;;;11.90;29.33
7335;BME280;3708;42.632;23.378;2023-03-12T13:31:49;93884.84;;;12.40;29.08
7335;BME280;3708;42.632;23.378;2023-03-12T13:34:49;93891.38;;;11.75;29.10
7335;BME280;3708;42.632;23.378;2023-03-12T13:37:27;93886.91;;;11.75;28.71